sensor_id;sensor_type;location;lat;lon;timestamp;P1;durP1;ratioP1;P2;durP2;ratioP2
27161;SDS011;54464;50.558;9.704;2022-11-20T00:00:48;57.20;;;25.37;;
27161;SDS011;54464;50.558;9.704;2022-11-20T00:03:14;50.00;;;24.93;;
27161;SDS011;54464;50.558;9.704;2022-11-20T00:05:40;49.13;;;26.17;;
27161;SDS011;54464;50.558;9.704;2022-11-20T00:08:06;50.10;;;25.10;;
27161;SDS011;54464;50.558;9.704;2022-11-20T00:10:31;47.93;;;24.77;;
27161;SDS011;54464;50.558;9.704;2022-11-20T00:12:57;49.27;;;25.77;;
27161;SDS011;54464;50.558;9.704;2022-11-20T00:15:24;47.63;;;25.57;;
27161;SDS011;54464;50.558;9.704;2022-11-20T00:17:50;46.23;;;25.13;;
27161;SDS011;54464;50.558;9.704;2022-11-20T00:20:16;45.30;;;24.97;;
27161;SDS011;54464;50.558;9.704;2022-11-20T00:22:41;48.40;;;25.87;;
27161;SDS011;54464;50.558;9.704;2022-11-20T00:25:07;49.97;;;25.53;;
27161;SDS011;54464;50.558;9.704;2022-11-20T00:27:33;47.40;;;26.23;;
27161;SDS011;54464;50.558;9.704;2022-11-20T00:29:59;50.17;;;26.57;;
27161;SDS011;54464;50.558;9.704;2022-11-20T00:32:25;44.50;;;24.53;;
27161;SDS011;54464;50.558;9.704;2022-11-20T00:34:50;44.00;;;25.53;;
27161;SDS011;54464;50.558;9.704;2022-11-20T00:37:16;47.57;;;27.03;;
27161;SDS011;54464;50.558;9.704;2022-11-20T00:39:41;42.00;;;24.17;;
27161;SDS011;54464;50.558;9.704;2022-11-20T00:42:07;42.67;;;23.57;;
27161;SDS011;54464;50.558;9.704;2022-11-20T00:44:33;46.17;;;24.57;;
27161;SDS011;54464;50.558;9.704;2022-11-20T00:46:59;46.40;;;25.30;;
27161;SDS011;54464;50.558;9.704;2022-11-20T00:49:25;47.63;;;25.13;;
27161;SDS011;54464;50.558;9.704;2022-11-20T00:51:50;45.27;;;25.30;;
27161;SDS011;54464;50.558;9.704;2022-11-20T00:54:16;47.27;;;24.93;;
27161;SDS011;54464;50.558;9.704;2022-11-20T00:56:42;43.83;;;24.70;;
27161;SDS011;54464;50.558;9.704;2022-11-20T00:59:08;47.27;;;24.80;;
27161;SDS011;54464;50.558;9.704;2022-11-20T01:01:34;45.73;;;25.30;;
27161;SDS011;54464;50.558;9.704;2022-11-20T01:04:01;43.23;;;24.87;;
27161;SDS011;54464;50.558;9.704;2022-11-20T01:06:28;47.03;;;26.10;;
27161;SDS011;54464;50.558;9.704;2022-11-20T01:08:56;44.23;;;23.80;;
27161;SDS011;54464;50.558;9.704;2022-11-20T01:11:25;43.97;;;24.17;;
27161;SDS011;54464;50.558;9.704;2022-11-20T01:13:54;41.23;;;23.10;;
27161;SDS011;54464;50.558;9.704;2022-11-20T01:16:22;42.50;;;24.13;;
27161;SDS011;54464;50.558;9.704;2022-11-20T01:19:00;42.80;;;23.70;;
27161;SDS011;54464;50.558;9.704;2022-11-20T01:21:28;46.80;;;24.70;;
27161;SDS011;54464;50.558;9.704;2022-11-20T01:23:55;41.30;;;23.73;;
27161;SDS011;54464;50.558;9.704;2022-11-20T01:26:26;43.80;;;24.13;;
27161;SDS011;54464;50.558;9.704;2022-11-20T01:28:54;40.37;;;23.80;;
27161;SDS011;54464;50.558;9.704;2022-11-20T01:31:21;42.07;;;24.20;;
27161;SDS011;54464;50.558;9.704;2022-11-20T01:33:50;39.30;;;22.27;;
27161;SDS011;54464;50.558;9.704;2022-11-20T01:36:17;40.63;;;22.90;;
27161;SDS011;54464;50.558;9.704;2022-11-20T01:38:44;39.47;;;21.70;;
27161;SDS011;54464;50.558;9.704;2022-11-20T01:41:11;38.10;;;21.93;;
27161;SDS011;54464;50.558;9.704;2022-11-20T01:44:01;40.77;;;23.27;;
27161;SDS011;54464;50.558;9.704;2022-11-20T01:46:27;36.80;;;21.13;;
27161;SDS011;54464;50.558;9.704;2022-11-20T01:51:43;36.93;;;21.60;;
27161;SDS011;54464;50.558;9.704;2022-11-20T01:54:18;35.17;;;20.30;;
27161;SDS011;54464;50.558;9.704;2022-11-20T01:56:48;34.67;;;20.87;;
27161;SDS011;54464;50.558;9.704;2022-11-20T01:59:18;36.33;;;21.87;;
27161;SDS011;54464;50.558;9.704;2022-11-20T02:01:45;35.90;;;20.63;;
27161;SDS011;54464;50.558;9.704;2022-11-20T02:04:10;34.70;;;20.97;;
27161;SDS011;54464;50.558;9.704;2022-11-20T02:06:57;34.20;;;20.43;;
27161;SDS011;54464;50.558;9.704;2022-11-20T02:09:26;37.57;;;21.17;;
27161;SDS011;54464;50.558;9.704;2022-11-20T02:11:52;38.83;;;21.43;;
27161;SDS011;54464;50.558;9.704;2022-11-20T02:14:19;39.03;;;22.30;;
27161;SDS011;54464;50.558;9.704;2022-11-20T02:16:46;34.13;;;20.60;;
27161;SDS011;54464;50.558;9.704;2022-11-20T02:19:29;35.83;;;21.20;;
27161;SDS011;54464;50.558;9.704;2022-11-20T02:24:37;33.73;;;20.67;;
27161;SDS011;54464;50.558;9.704;2022-11-20T02:27:11;33.40;;;20.17;;
27161;SDS011;54464;50.558;9.704;2022-11-20T02:29:43;32.03;;;17.60;;
27161;SDS011;54464;50.558;9.704;2022-11-20T02:32:26;30.23;;;18.23;;
27161;SDS011;54464;50.558;9.704;2022-11-20T02:34:54;33.00;;;20.37;;
27161;SDS011;54464;50.558;9.704;2022-11-20T02:37:20;33.03;;;20.17;;
27161;SDS011;54464;50.558;9.704;2022-11-20T02:39:47;34.77;;;19.93;;
27161;SDS011;54464;50.558;9.704;2022-11-20T02:42:14;35.87;;;20.00;;
27161;SDS011;54464;50.558;9.704;2022-11-20T02:44:40;38.67;;;21.57;;
27161;SDS011;54464;50.558;9.704;2022-11-20T02:47:06;35.27;;;21.17;;
27161;SDS011;54464;50.558;9.704;2022-11-20T02:49:32;35.27;;;21.43;;
27161;SDS011;54464;50.558;9.704;2022-11-20T02:51:58;37.93;;;21.77;;
27161;SDS011;54464;50.558;9.704;2022-11-20T02:54:24;37.37;;;21.57;;
27161;SDS011;54464;50.558;9.704;2022-11-20T02:56:50;36.43;;;21.23;;
27161;SDS011;54464;50.558;9.704;2022-11-20T02:59:15;37.37;;;21.50;;
27161;SDS011;54464;50.558;9.704;2022-11-20T03:01:41;36.03;;;21.80;;
27161;SDS011;54464;50.558;9.704;2022-11-20T03:04:07;36.60;;;21.43;;
27161;SDS011;54464;50.558;9.704;2022-11-20T03:06:32;39.97;;;23.80;;
27161;SDS011;54464;50.558;9.704;2022-11-20T03:08:58;36.97;;;21.33;;
27161;SDS011;54464;50.558;9.704;2022-11-20T03:11:24;36.43;;;21.90;;
27161;SDS011;54464;50.558;9.704;2022-11-20T03:13:49;34.10;;;20.10;;
27161;SDS011;54464;50.558;9.704;2022-11-20T03:16:17;34.97;;;20.47;;
27161;SDS011;54464;50.558;9.704;2022-11-20T03:18:47;33.30;;;20.30;;
27161;SDS011;54464;50.558;9.704;2022-11-20T03:21:13;31.20;;;19.70;;
27161;SDS011;54464;50.558;9.704;2022-11-20T03:23:40;27.93;;;18.63;;
27161;SDS011;54464;50.558;9.704;2022-11-20T03:28:49;29.70;;;18.50;;
27161;SDS011;54464;50.558;9.704;2022-11-20T03:31:24;29.97;;;18.17;;
27161;SDS011;54464;50.558;9.704;2022-11-20T03:33:51;31.60;;;19.30;;
27161;SDS011;54464;50.558;9.704;2022-11-20T03:36:17;30.97;;;19.07;;
27161;SDS011;54464;50.558;9.704;2022-11-20T03:38:44;31.33;;;18.40;;
27161;SDS011;54464;50.558;9.704;2022-11-20T03:41:12;32.03;;;19.40;;
27161;SDS011;54464;50.558;9.704;2022-11-20T03:43:46;32.77;;;19.70;;
27161;SDS011;54464;50.558;9.704;2022-11-20T03:46:13;34.47;;;19.70;;
27161;SDS011;54464;50.558;9.704;2022-11-20T03:48:38;33.93;;;20.37;;
27161;SDS011;54464;50.558;9.704;2022-11-20T03:51:11;32.13;;;19.60;;
27161;SDS011;54464;50.558;9.704;2022-11-20T03:53:48;33.77;;;19.87;;
27161;SDS011;54464;50.558;9.704;2022-11-20T03:56:15;31.50;;;19.37;;
27161;SDS011;54464;50.558;9.704;2022-11-20T03:58:42;33.27;;;20.67;;
27161;SDS011;54464;50.558;9.704;2022-11-20T04:01:10;35.67;;;20.50;;
27161;SDS011;54464;50.558;9.704;2022-11-20T04:03:37;32.77;;;20.23;;
27161;SDS011;54464;50.558;9.704;2022-11-20T04:06:08;33.10;;;20.30;;
27161;SDS011;54464;50.558;9.704;2022-11-20T04:08:35;32.97;;;20.17;;
27161;SDS011;54464;50.558;9.704;2022-11-20T04:11:36;32.67;;;19.87;;
27161;SDS011;54464;50.558;9.704;2022-11-20T04:13:59;32.20;;;19.17;;
27161;SDS011;54464;50.558;9.704;2022-11-20T04:16:26;32.63;;;19.23;;
27161;SDS011;54464;50.558;9.704;2022-11-20T04:18:57;30.47;;;19.53;;
27161;SDS011;54464;50.558;9.704;2022-11-20T04:21:24;31.97;;;18.97;;
27161;SDS011;54464;50.558;9.704;2022-11-20T04:23:51;34.47;;;21.37;;
27161;SDS011;54464;50.558;9.704;2022-11-20T04:26:21;35.90;;;21.17;;
27161;SDS011;54464;50.558;9.704;2022-11-20T04:28:48;37.30;;;22.13;;
27161;SDS011;54464;50.558;9.704;2022-11-20T04:31:16;35.77;;;20.73;;
27161;SDS011;54464;50.558;9.704;2022-11-20T04:33:43;34.23;;;20.53;;
27161;SDS011;54464;50.558;9.704;2022-11-20T04:36:13;35.50;;;21.27;;
27161;SDS011;54464;50.558;9.704;2022-11-20T04:38:46;34.43;;;20.67;;
27161;SDS011;54464;50.558;9.704;2022-11-20T04:41:16;33.23;;;20.53;;
27161;SDS011;54464;50.558;9.704;2022-11-20T04:43:47;32.97;;;20.57;;
27161;SDS011;54464;50.558;9.704;2022-11-20T04:46:14;32.40;;;20.10;;
27161;SDS011;54464;50.558;9.704;2022-11-20T04:48:40;33.57;;;20.17;;
27161;SDS011;54464;50.558;9.704;2022-11-20T04:51:06;38.43;;;22.00;;
27161;SDS011;54464;50.558;9.704;2022-11-20T04:53:32;38.00;;;21.87;;
27161;SDS011;54464;50.558;9.704;2022-11-20T04:56:01;38.13;;;22.80;;
27161;SDS011;54464;50.558;9.704;2022-11-20T04:58:31;31.67;;;19.30;;
27161;SDS011;54464;50.558;9.704;2022-11-20T05:03:52;31.93;;;19.77;;
27161;SDS011;54464;50.558;9.704;2022-11-20T05:06:18;30.13;;;18.47;;
27161;SDS011;54464;50.558;9.704;2022-11-20T05:08:45;30.57;;;19.37;;
27161;SDS011;54464;50.558;9.704;2022-11-20T05:11:14;30.23;;;18.80;;
27161;SDS011;54464;50.558;9.704;2022-11-20T05:13:42;29.50;;;18.77;;
27161;SDS011;54464;50.558;9.704;2022-11-20T05:16:10;31.27;;;19.03;;
27161;SDS011;54464;50.558;9.704;2022-11-20T05:18:38;30.77;;;19.70;;
27161;SDS011;54464;50.558;9.704;2022-11-20T05:21:04;31.23;;;19.53;;
27161;SDS011;54464;50.558;9.704;2022-11-20T05:23:31;31.47;;;19.90;;
27161;SDS011;54464;50.558;9.704;2022-11-20T05:25:57;33.13;;;20.47;;
27161;SDS011;54464;50.558;9.704;2022-11-20T05:28:24;32.70;;;20.50;;
27161;SDS011;54464;50.558;9.704;2022-11-20T05:30:50;31.20;;;20.10;;
27161;SDS011;54464;50.558;9.704;2022-11-20T05:33:16;35.97;;;20.73;;
27161;SDS011;54464;50.558;9.704;2022-11-20T05:35:42;30.20;;;18.80;;
27161;SDS011;54464;50.558;9.704;2022-11-20T05:38:08;30.30;;;19.13;;
27161;SDS011;54464;50.558;9.704;2022-11-20T05:40:34;29.60;;;19.33;;
27161;SDS011;54464;50.558;9.704;2022-11-20T05:43:00;29.77;;;18.93;;
27161;SDS011;54464;50.558;9.704;2022-11-20T05:45:26;25.70;;;17.17;;
27161;SDS011;54464;50.558;9.704;2022-11-20T05:47:52;25.93;;;17.73;;
27161;SDS011;54464;50.558;9.704;2022-11-20T05:50:18;27.37;;;17.87;;
27161;SDS011;54464;50.558;9.704;2022-11-20T05:52:44;28.60;;;18.33;;
27161;SDS011;54464;50.558;9.704;2022-11-20T05:55:10;27.53;;;18.50;;
27161;SDS011;54464;50.558;9.704;2022-11-20T05:57:35;28.60;;;18.73;;
27161;SDS011;54464;50.558;9.704;2022-11-20T06:00:02;29.77;;;18.80;;
27161;SDS011;54464;50.558;9.704;2022-11-20T06:02:28;28.47;;;18.43;;
27161;SDS011;54464;50.558;9.704;2022-11-20T06:04:54;29.83;;;18.87;;
27161;SDS011;54464;50.558;9.704;2022-11-20T06:07:20;30.83;;;17.90;;
27161;SDS011;54464;50.558;9.704;2022-11-20T06:09:45;29.53;;;18.93;;
27161;SDS011;54464;50.558;9.704;2022-11-20T06:12:11;29.17;;;18.27;;
27161;SDS011;54464;50.558;9.704;2022-11-20T06:14:36;26.73;;;18.30;;
27161;SDS011;54464;50.558;9.704;2022-11-20T06:17:02;25.63;;;16.50;;
27161;SDS011;54464;50.558;9.704;2022-11-20T06:19:28;27.60;;;18.23;;
27161;SDS011;54464;50.558;9.704;2022-11-20T06:21:53;29.50;;;18.90;;
27161;SDS011;54464;50.558;9.704;2022-11-20T06:24:19;28.50;;;18.47;;
27161;SDS011;54464;50.558;9.704;2022-11-20T06:26:45;29.73;;;19.10;;
27161;SDS011;54464;50.558;9.704;2022-11-20T06:29:10;28.17;;;18.07;;
27161;SDS011;54464;50.558;9.704;2022-11-20T06:31:36;30.53;;;19.17;;
27161;SDS011;54464;50.558;9.704;2022-11-20T06:34:05;30.17;;;19.67;;
27161;SDS011;54464;50.558;9.704;2022-11-20T06:36:31;29.93;;;19.83;;
27161;SDS011;54464;50.558;9.704;2022-11-20T06:38:57;31.10;;;19.90;;
27161;SDS011;54464;50.558;9.704;2022-11-20T06:41:23;28.90;;;19.57;;
27161;SDS011;54464;50.558;9.704;2022-11-20T06:43:50;30.27;;;19.03;;
27161;SDS011;54464;50.558;9.704;2022-11-20T06:46:17;29.77;;;18.93;;
27161;SDS011;54464;50.558;9.704;2022-11-20T06:48:43;30.23;;;20.07;;
27161;SDS011;54464;50.558;9.704;2022-11-20T06:51:09;32.23;;;20.23;;
27161;SDS011;54464;50.558;9.704;2022-11-20T06:53:35;30.23;;;18.97;;
27161;SDS011;54464;50.558;9.704;2022-11-20T06:56:01;28.93;;;18.93;;
27161;SDS011;54464;50.558;9.704;2022-11-20T06:58:28;27.67;;;18.40;;
27161;SDS011;54464;50.558;9.704;2022-11-20T07:00:58;30.87;;;19.50;;
27161;SDS011;54464;50.558;9.704;2022-11-20T07:03:24;28.73;;;18.10;;
27161;SDS011;54464;50.558;9.704;2022-11-20T07:05:50;30.33;;;18.57;;
27161;SDS011;54464;50.558;9.704;2022-11-20T07:08:16;29.73;;;20.27;;
27161;SDS011;54464;50.558;9.704;2022-11-20T07:10:41;31.13;;;20.43;;
27161;SDS011;54464;50.558;9.704;2022-11-20T07:13:07;28.80;;;19.00;;
27161;SDS011;54464;50.558;9.704;2022-11-20T07:15:33;31.60;;;20.10;;
27161;SDS011;54464;50.558;9.704;2022-11-20T07:17:59;33.30;;;22.67;;
27161;SDS011;54464;50.558;9.704;2022-11-20T07:20:27;31.03;;;20.20;;
27161;SDS011;54464;50.558;9.704;2022-11-20T07:22:53;34.27;;;21.33;;
27161;SDS011;54464;50.558;9.704;2022-11-20T07:25:20;33.93;;;20.87;;
27161;SDS011;54464;50.558;9.704;2022-11-20T07:27:47;34.27;;;21.67;;
27161;SDS011;54464;50.558;9.704;2022-11-20T07:30:13;31.40;;;19.17;;
27161;SDS011;54464;50.558;9.704;2022-11-20T07:32:40;30.63;;;20.07;;
27161;SDS011;54464;50.558;9.704;2022-11-20T07:35:05;32.23;;;20.53;;
27161;SDS011;54464;50.558;9.704;2022-11-20T07:37:33;35.80;;;21.17;;
27161;SDS011;54464;50.558;9.704;2022-11-20T07:40:00;34.17;;;22.17;;
27161;SDS011;54464;50.558;9.704;2022-11-20T07:42:25;33.00;;;20.80;;
27161;SDS011;54464;50.558;9.704;2022-11-20T07:44:51;36.03;;;21.60;;
27161;SDS011;54464;50.558;9.704;2022-11-20T07:47:16;34.03;;;21.97;;
27161;SDS011;54464;50.558;9.704;2022-11-20T07:49:42;33.27;;;20.17;;
27161;SDS011;54464;50.558;9.704;2022-11-20T07:52:08;35.00;;;21.80;;
27161;SDS011;54464;50.558;9.704;2022-11-20T07:54:33;34.00;;;21.03;;
27161;SDS011;54464;50.558;9.704;2022-11-20T07:56:59;34.80;;;22.53;;
27161;SDS011;54464;50.558;9.704;2022-11-20T07:59:24;37.33;;;21.63;;
27161;SDS011;54464;50.558;9.704;2022-11-20T08:01:50;38.23;;;23.03;;
27161;SDS011;54464;50.558;9.704;2022-11-20T08:04:16;37.00;;;22.90;;
27161;SDS011;54464;50.558;9.704;2022-11-20T08:06:41;36.93;;;22.60;;
27161;SDS011;54464;50.558;9.704;2022-11-20T08:09:07;38.90;;;23.30;;
27161;SDS011;54464;50.558;9.704;2022-11-20T08:11:33;41.67;;;24.43;;
27161;SDS011;54464;50.558;9.704;2022-11-20T08:14:21;39.67;;;23.33;;
27161;SDS011;54464;50.558;9.704;2022-11-20T08:16:48;39.87;;;24.17;;
27161;SDS011;54464;50.558;9.704;2022-11-20T08:19:15;44.37;;;25.23;;
27161;SDS011;54464;50.558;9.704;2022-11-20T08:21:42;44.53;;;25.73;;
27161;SDS011;54464;50.558;9.704;2022-11-20T08:24:08;40.50;;;23.67;;
27161;SDS011;54464;50.558;9.704;2022-11-20T08:26:34;34.80;;;22.60;;
27161;SDS011;54464;50.558;9.704;2022-11-20T08:29:01;33.47;;;21.07;;
27161;SDS011;54464;50.558;9.704;2022-11-20T08:31:27;33.73;;;20.73;;
27161;SDS011;54464;50.558;9.704;2022-11-20T08:33:53;36.73;;;22.87;;
27161;SDS011;54464;50.558;9.704;2022-11-20T08:36:19;34.87;;;21.37;;
27161;SDS011;54464;50.558;9.704;2022-11-20T08:38:47;36.17;;;20.27;;
27161;SDS011;54464;50.558;9.704;2022-11-20T08:41:13;37.77;;;22.13;;
27161;SDS011;54464;50.558;9.704;2022-11-20T08:44:01;37.90;;;22.57;;
27161;SDS011;54464;50.558;9.704;2022-11-20T08:46:33;39.90;;;22.73;;
27161;SDS011;54464;50.558;9.704;2022-11-20T08:49:01;39.53;;;23.27;;
27161;SDS011;54464;50.558;9.704;2022-11-20T08:51:27;37.40;;;22.23;;
27161;SDS011;54464;50.558;9.704;2022-11-20T08:53:52;37.90;;;20.50;;
27161;SDS011;54464;50.558;9.704;2022-11-20T08:56:18;38.30;;;21.97;;
27161;SDS011;54464;50.558;9.704;2022-11-20T08:58:44;38.60;;;23.50;;
27161;SDS011;54464;50.558;9.704;2022-11-20T09:01:10;41.73;;;22.77;;
27161;SDS011;54464;50.558;9.704;2022-11-20T09:03:35;36.63;;;20.53;;
27161;SDS011;54464;50.558;9.704;2022-11-20T09:06:05;36.70;;;20.53;;
27161;SDS011;54464;50.558;9.704;2022-11-20T09:08:32;37.33;;;22.40;;
27161;SDS011;54464;50.558;9.704;2022-11-20T09:10:58;41.67;;;21.20;;
27161;SDS011;54464;50.558;9.704;2022-11-20T09:13:24;38.53;;;22.43;;
27161;SDS011;54464;50.558;9.704;2022-11-20T09:18:24;40.10;;;22.43;;
27161;SDS011;54464;50.558;9.704;2022-11-20T09:20:51;41.17;;;22.10;;
27161;SDS011;54464;50.558;9.704;2022-11-20T09:23:21;38.50;;;21.90;;
27161;SDS011;54464;50.558;9.704;2022-11-20T09:25:47;38.10;;;21.97;;
27161;SDS011;54464;50.558;9.704;2022-11-20T09:28:13;40.60;;;21.83;;
27161;SDS011;54464;50.558;9.704;2022-11-20T09:30:38;37.80;;;21.27;;
27161;SDS011;54464;50.558;9.704;2022-11-20T09:33:04;37.53;;;20.60;;
27161;SDS011;54464;50.558;9.704;2022-11-20T09:35:31;39.07;;;22.27;;
27161;SDS011;54464;50.558;9.704;2022-11-20T09:37:57;40.37;;;21.87;;
27161;SDS011;54464;50.558;9.704;2022-11-20T09:40:24;36.63;;;20.80;;
27161;SDS011;54464;50.558;9.704;2022-11-20T09:48:32;33.90;;;19.30;;
27161;SDS011;54464;50.558;9.704;2022-11-20T09:56:48;35.50;;;20.10;;
27161;SDS011;54464;50.558;9.704;2022-11-20T10:02:06;35.80;;;18.90;;
27161;SDS011;54464;50.558;9.704;2022-11-20T10:04:47;35.30;;;20.23;;
27161;SDS011;54464;50.558;9.704;2022-11-20T10:07:23;37.40;;;21.57;;
27161;SDS011;54464;50.558;9.704;2022-11-20T10:10:01;35.30;;;20.17;;
27161;SDS011;54464;50.558;9.704;2022-11-20T10:20:48;34.07;;;19.17;;
27161;SDS011;54464;50.558;9.704;2022-11-20T10:31:37;40.00;;;24.63;;
27161;SDS011;54464;50.558;9.704;2022-11-20T10:37:27;30.43;;;18.87;;
27161;SDS011;54464;50.558;9.704;2022-11-20T10:39:57;30.43;;;18.07;;
27161;SDS011;54464;50.558;9.704;2022-11-20T10:47:50;32.17;;;18.40;;
27161;SDS011;54464;50.558;9.704;2022-11-20T10:50:19;46.73;;;29.27;;
27161;SDS011;54464;50.558;9.704;2022-11-20T10:55:44;30.23;;;18.67;;
27161;SDS011;54464;50.558;9.704;2022-11-20T11:01:02;35.57;;;25.67;;
27161;SDS011;54464;50.558;9.704;2022-11-20T11:03:38;27.33;;;17.57;;
27161;SDS011;54464;50.558;9.704;2022-11-20T11:06:10;22.73;;;15.33;;
27161;SDS011;54464;50.558;9.704;2022-11-20T11:08:50;27.20;;;18.63;;
27161;SDS011;54464;50.558;9.704;2022-11-20T11:11:22;24.23;;;16.20;;
27161;SDS011;54464;50.558;9.704;2022-11-20T11:13:50;24.43;;;14.30;;
27161;SDS011;54464;50.558;9.704;2022-11-20T11:16:20;30.73;;;17.87;;
27161;SDS011;54464;50.558;9.704;2022-11-20T11:18:47;30.90;;;19.80;;
27161;SDS011;54464;50.558;9.704;2022-11-20T11:21:13;35.00;;;20.63;;
27161;SDS011;54464;50.558;9.704;2022-11-20T11:23:48;30.83;;;19.23;;
27161;SDS011;54464;50.558;9.704;2022-11-20T11:26:27;31.00;;;18.23;;
27161;SDS011;54464;50.558;9.704;2022-11-20T11:28:56;28.53;;;17.47;;
27161;SDS011;54464;50.558;9.704;2022-11-20T11:31:33;26.00;;;17.03;;
27161;SDS011;54464;50.558;9.704;2022-11-20T11:34:05;23.50;;;15.10;;
27161;SDS011;54464;50.558;9.704;2022-11-20T11:36:42;24.37;;;15.80;;
27161;SDS011;54464;50.558;9.704;2022-11-20T11:39:17;28.03;;;17.13;;
27161;SDS011;54464;50.558;9.704;2022-11-20T11:41:46;26.73;;;17.23;;
27161;SDS011;54464;50.558;9.704;2022-11-20T11:44:16;25.47;;;15.43;;
27161;SDS011;54464;50.558;9.704;2022-11-20T11:47:03;22.70;;;13.53;;
27161;SDS011;54464;50.558;9.704;2022-11-20T11:49:45;20.23;;;12.87;;
27161;SDS011;54464;50.558;9.704;2022-11-20T12:05:18;15.83;;;9.43;;
27161;SDS011;54464;50.558;9.704;2022-11-20T12:13:20;15.07;;;10.03;;
27161;SDS011;54464;50.558;9.704;2022-11-20T12:15:47;15.73;;;10.77;;
27161;SDS011;54464;50.558;9.704;2022-11-20T12:18:20;16.03;;;10.70;;
27161;SDS011;54464;50.558;9.704;2022-11-20T12:26:45;14.77;;;9.07;;
27161;SDS011;54464;50.558;9.704;2022-11-20T12:29:32;15.33;;;10.60;;
27161;SDS011;54464;50.558;9.704;2022-11-20T12:39:58;15.90;;;10.50;;
27161;SDS011;54464;50.558;9.704;2022-11-20T12:48:39;17.10;;;11.33;;
27161;SDS011;54464;50.558;9.704;2022-11-20T12:56:34;14.23;;;9.90;;
27161;SDS011;54464;50.558;9.704;2022-11-20T13:02:23;14.83;;;9.77;;
27161;SDS011;54464;50.558;9.704;2022-11-20T13:08:38;14.57;;;10.23;;
27161;SDS011;54464;50.558;9.704;2022-11-20T13:11:40;12.47;;;8.97;;
27161;SDS011;54464;50.558;9.704;2022-11-20T13:17:01;14.23;;;9.90;;
27161;SDS011;54464;50.558;9.704;2022-11-20T13:19:34;12.80;;;8.43;;
27161;SDS011;54464;50.558;9.704;2022-11-20T13:22:00;12.10;;;8.33;;
27161;SDS011;54464;50.558;9.704;2022-11-20T13:24:27;12.33;;;8.87;;
27161;SDS011;54464;50.558;9.704;2022-11-20T13:29:38;14.03;;;10.57;;
27161;SDS011;54464;50.558;9.704;2022-11-20T13:34:51;11.57;;;8.50;;
27161;SDS011;54464;50.558;9.704;2022-11-20T13:37:35;12.63;;;8.83;;
27161;SDS011;54464;50.558;9.704;2022-11-20T13:40:21;13.47;;;9.13;;
27161;SDS011;54464;50.558;9.704;2022-11-20T13:43:34;14.23;;;9.43;;
27161;SDS011;54464;50.558;9.704;2022-11-20T13:45:55;19.03;;;11.17;;
27161;SDS011;54464;50.558;9.704;2022-11-20T13:48:30;15.37;;;10.53;;
27161;SDS011;54464;50.558;9.704;2022-11-20T13:51:25;15.10;;;9.47;;
27161;SDS011;54464;50.558;9.704;2022-11-20T13:54:02;14.73;;;10.00;;
27161;SDS011;54464;50.558;9.704;2022-11-20T14:02:12;13.13;;;9.20;;
27161;SDS011;54464;50.558;9.704;2022-11-20T14:04:44;14.83;;;10.47;;
27161;SDS011;54464;50.558;9.704;2022-11-20T14:07:12;13.43;;;10.13;;
27161;SDS011;54464;50.558;9.704;2022-11-20T14:09:38;15.33;;;11.57;;
27161;SDS011;54464;50.558;9.704;2022-11-20T14:12:22;15.63;;;11.57;;
27161;SDS011;54464;50.558;9.704;2022-11-20T14:14:57;14.70;;;10.73;;
27161;SDS011;54464;50.558;9.704;2022-11-20T14:17:30;14.67;;;10.10;;
27161;SDS011;54464;50.558;9.704;2022-11-20T14:20:14;13.83;;;9.70;;
27161;SDS011;54464;50.558;9.704;2022-11-20T14:22:49;15.27;;;11.10;;
27161;SDS011;54464;50.558;9.704;2022-11-20T14:27:51;14.83;;;10.97;;
27161;SDS011;54464;50.558;9.704;2022-11-20T14:30:22;14.20;;;9.87;;
27161;SDS011;54464;50.558;9.704;2022-11-20T14:32:53;12.27;;;9.53;;
27161;SDS011;54464;50.558;9.704;2022-11-20T14:36:04;18.77;;;12.67;;
27161;SDS011;54464;50.558;9.704;2022-11-20T14:38:15;13.67;;;10.37;;
27161;SDS011;54464;50.558;9.704;2022-11-20T14:40:44;13.33;;;9.40;;
27161;SDS011;54464;50.558;9.704;2022-11-20T14:43:17;14.07;;;10.03;;
27161;SDS011;54464;50.558;9.704;2022-11-20T14:46:02;13.53;;;10.40;;
27161;SDS011;54464;50.558;9.704;2022-11-20T14:48:36;13.33;;;10.17;;
27161;SDS011;54464;50.558;9.704;2022-11-20T14:51:32;13.83;;;10.40;;
27161;SDS011;54464;50.558;9.704;2022-11-20T14:54:10;13.67;;;10.40;;
27161;SDS011;54464;50.558;9.704;2022-11-20T14:56:36;15.60;;;11.83;;
27161;SDS011;54464;50.558;9.704;2022-11-20T14:59:01;14.37;;;10.27;;
27161;SDS011;54464;50.558;9.704;2022-11-20T15:01:28;18.90;;;12.17;;
27161;SDS011;54464;50.558;9.704;2022-11-20T15:04:09;17.23;;;12.03;;
27161;SDS011;54464;50.558;9.704;2022-11-20T15:06:36;14.93;;;11.77;;
27161;SDS011;54464;50.558;9.704;2022-11-20T15:09:13;16.27;;;11.67;;
27161;SDS011;54464;50.558;9.704;2022-11-20T15:11:40;14.47;;;10.97;;
27161;SDS011;54464;50.558;9.704;2022-11-20T15:14:23;12.67;;;9.67;;
27161;SDS011;54464;50.558;9.704;2022-11-20T15:16:50;13.97;;;10.87;;
27161;SDS011;54464;50.558;9.704;2022-11-20T15:19:17;17.87;;;12.83;;
27161;SDS011;54464;50.558;9.704;2022-11-20T15:21:46;23.07;;;15.20;;
27161;SDS011;54464;50.558;9.704;2022-11-20T15:24:11;21.10;;;14.57;;
27161;SDS011;54464;50.558;9.704;2022-11-20T15:26:40;19.03;;;13.33;;
27161;SDS011;54464;50.558;9.704;2022-11-20T15:29:10;21.97;;;15.47;;
27161;SDS011;54464;50.558;9.704;2022-11-20T15:31:39;97.70;;;59.57;;
27161;SDS011;54464;50.558;9.704;2022-11-20T15:34:13;37.27;;;28.40;;
27161;SDS011;54464;50.558;9.704;2022-11-20T15:36:40;27.57;;;18.77;;
27161;SDS011;54464;50.558;9.704;2022-11-20T15:39:07;17.93;;;13.90;;
27161;SDS011;54464;50.558;9.704;2022-11-20T15:41:34;19.53;;;13.77;;
27161;SDS011;54464;50.558;9.704;2022-11-20T15:44:00;20.27;;;15.20;;
27161;SDS011;54464;50.558;9.704;2022-11-20T15:46:26;22.73;;;16.87;;
27161;SDS011;54464;50.558;9.704;2022-11-20T15:48:55;23.03;;;16.10;;
27161;SDS011;54464;50.558;9.704;2022-11-20T15:51:38;24.70;;;18.03;;
27161;SDS011;54464;50.558;9.704;2022-11-20T15:54:14;24.43;;;17.13;;
27161;SDS011;54464;50.558;9.704;2022-11-20T15:56:42;24.60;;;17.67;;
27161;SDS011;54464;50.558;9.704;2022-11-20T15:59:08;25.57;;;17.13;;
27161;SDS011;54464;50.558;9.704;2022-11-20T16:01:37;25.47;;;17.77;;
27161;SDS011;54464;50.558;9.704;2022-11-20T16:04:04;27.33;;;18.33;;
27161;SDS011;54464;50.558;9.704;2022-11-20T16:06:32;28.60;;;18.77;;
27161;SDS011;54464;50.558;9.704;2022-11-20T16:08:58;26.97;;;18.87;;
27161;SDS011;54464;50.558;9.704;2022-11-20T16:11:24;28.37;;;18.60;;
27161;SDS011;54464;50.558;9.704;2022-11-20T16:13:49;26.23;;;19.07;;
27161;SDS011;54464;50.558;9.704;2022-11-20T16:16:34;26.70;;;18.63;;
27161;SDS011;54464;50.558;9.704;2022-11-20T16:19:02;28.27;;;18.03;;
27161;SDS011;54464;50.558;9.704;2022-11-20T16:21:27;24.83;;;17.37;;
27161;SDS011;54464;50.558;9.704;2022-11-20T16:23:57;27.77;;;18.53;;
27161;SDS011;54464;50.558;9.704;2022-11-20T16:26:24;26.70;;;19.00;;
27161;SDS011;54464;50.558;9.704;2022-11-20T16:28:50;25.13;;;17.73;;
27161;SDS011;54464;50.558;9.704;2022-11-20T16:31:16;29.40;;;17.80;;
27161;SDS011;54464;50.558;9.704;2022-11-20T16:33:48;27.70;;;18.37;;
27161;SDS011;54464;50.558;9.704;2022-11-20T16:36:15;25.80;;;18.60;;
27161;SDS011;54464;50.558;9.704;2022-11-20T16:38:41;24.63;;;17.50;;
27161;SDS011;54464;50.558;9.704;2022-11-20T16:41:07;26.30;;;17.03;;